createdAt,value
2018-05-17T00:00:46.495Z,0.00
2018-05-17T00:01:46.426Z,0.00
2018-05-17T00:02:46.409Z,0.00
2018-05-17T00:03:46.422Z,0.00
2018-05-17T00:04:46.446Z,0.00
2018-05-17T00:05:46.376Z,0.00
2018-05-17T00:06:46.344Z,0.00
2018-05-17T00:07:46.324Z,0.00
2018-05-17T00:08:46.330Z,0.00
2018-05-17T00:09:46.301Z,0.00
2018-05-17T00:10:47.035Z,0.00
2018-05-17T00:11:46.281Z,0.00
2018-05-17T00:12:46.275Z,0.00
2018-05-17T00:13:46.228Z,0.00
2018-05-17T00:14:46.212Z,0.00
2018-05-17T00:15:46.202Z,0.00
2018-05-17T00:16:46.182Z,0.00
2018-05-17T00:17:46.154Z,0.00
2018-05-17T00:18:46.138Z,0.00
2018-05-17T00:19:46.230Z,0.00
2018-05-17T00:20:46.110Z,0.00
2018-05-17T00:21:46.095Z,0.00
2018-05-17T00:22:46.075Z,0.00
2018-05-17T00:23:46.074Z,0.00
2018-05-17T00:24:46.039Z,0.00
2018-05-17T00:25:46.026Z,0.00
2018-05-17T00:26:46.021Z,0.00
2018-05-17T00:27:46.008Z,0.00
2018-05-17T00:28:45.996Z,0.00
2018-05-17T00:29:45.976Z,0.00
2018-05-17T00:30:45.941Z,0.00
2018-05-17T00:31:45.954Z,0.00
2018-05-17T00:32:45.922Z,0.00
2018-05-17T00:33:45.918Z,0.00
2018-05-17T00:34:45.901Z,0.00
2018-05-17T00:35:45.923Z,0.00
2018-05-17T00:36:45.836Z,0.00
2018-05-17T00:37:45.816Z,0.00
2018-05-17T00:38:45.830Z,0.00
2018-05-17T00:39:45.791Z,0.00
2018-05-17T00:40:45.780Z,0.00
2018-05-17T00:41:45.748Z,0.00
2018-05-17T00:42:45.742Z,0.00
2018-05-17T00:43:45.722Z,0.00
2018-05-17T00:44:45.703Z,0.00
2018-05-17T00:45:45.689Z,0.00
2018-05-17T00:46:45.674Z,0.00
2018-05-17T00:47:45.654Z,0.00
2018-05-17T00:48:45.677Z,0.00
2018-05-17T00:49:45.615Z,0.00
2018-05-17T00:50:45.604Z,0.00
2018-05-17T00:51:45.584Z,0.00
2018-05-17T00:52:45.575Z,0.00
2018-05-17T00:53:45.549Z,0.00
2018-05-17T00:54:45.531Z,0.00
2018-05-17T00:55:45.514Z,0.00
2018-05-17T00:56:45.504Z,0.00
2018-05-17T00:57:45.484Z,0.00
2018-05-17T00:58:45.466Z,0.00
2018-05-17T00:59:45.450Z,0.00
2018-05-17T01:00:45.437Z,0.00
2018-05-17T01:01:45.439Z,0.00
2018-05-17T01:02:45.400Z,0.00
2018-05-17T01:03:45.383Z,0.00
2018-05-17T01:04:45.363Z,0.00
2018-05-17T01:05:45.357Z,0.00
2018-05-17T01:06:45.331Z,0.00
2018-05-17T01:07:45.334Z,0.00
2018-05-17T01:08:45.299Z,0.00
2018-05-17T01:09:45.281Z,0.00
2018-05-17T01:10:45.265Z,0.00
2018-05-17T01:11:45.260Z,0.00
2018-05-17T01:12:45.232Z,0.00
2018-05-17T01:13:45.217Z,0.00
2018-05-17T01:14:45.258Z,0.00
2018-05-17T01:15:45.183Z,0.00
2018-05-17T01:16:45.157Z,0.00
2018-05-17T01:17:45.148Z,0.00
2018-05-17T01:18:45.129Z,0.00
2018-05-17T01:19:45.111Z,0.00
2018-05-17T01:20:45.109Z,0.00
2018-05-17T01:21:45.086Z,0.00
2018-05-17T01:22:45.061Z,0.00
2018-05-17T01:23:45.045Z,0.00
2018-05-17T01:24:45.030Z,0.00
2018-05-17T01:25:45.053Z,0.00
2018-05-17T01:26:44.993Z,0.00
2018-05-17T01:27:44.980Z,0.00
2018-05-17T01:28:44.953Z,0.00
2018-05-17T01:29:44.939Z,0.00
2018-05-17T01:30:44.926Z,0.00
2018-05-17T01:31:44.919Z,0.00
2018-05-17T01:32:44.914Z,0.00
2018-05-17T01:33:44.875Z,0.00
2018-05-17T01:34:44.870Z,0.00
2018-05-17T01:35:44.849Z,0.00
2018-05-17T01:36:44.829Z,0.00
2018-05-17T01:37:44.808Z,0.00
2018-05-17T01:38:44.799Z,0.00
2018-05-17T01:39:44.779Z,0.00
2018-05-17T01:40:44.761Z,0.00
2018-05-17T01:41:44.740Z,0.00
2018-05-17T01:42:44.723Z,0.00
2018-05-17T01:43:44.707Z,0.00
2018-05-17T01:44:44.690Z,0.00
2018-05-17T01:45:44.678Z,0.00
2018-05-17T01:46:44.652Z,0.00
2018-05-17T01:47:44.647Z,0.00
2018-05-17T01:48:44.619Z,0.00
2018-05-17T01:49:44.613Z,0.00
2018-05-17T01:50:44.597Z,0.00
2018-05-17T01:51:44.576Z,0.00
2018-05-17T01:52:44.552Z,0.00
2018-05-17T01:53:44.562Z,0.00
2018-05-17T01:54:44.531Z,0.00
2018-05-17T01:55:44.556Z,0.00
2018-05-17T01:56:44.498Z,0.00
2018-05-17T01:57:44.474Z,0.00
2018-05-17T01:58:44.456Z,0.00
2018-05-17T01:59:44.445Z,0.00
2018-05-17T02:00:44.420Z,0.00
2018-05-17T02:01:44.402Z,0.00
2018-05-17T02:02:44.395Z,0.00
2018-05-17T02:03:44.409Z,0.00
2018-05-17T02:04:44.358Z,0.00
2018-05-17T02:05:44.348Z,0.00
2018-05-17T02:06:44.328Z,0.00
2018-05-17T02:07:44.307Z,0.00
2018-05-17T02:08:44.290Z,0.00
2018-05-17T02:09:44.264Z,0.00
2018-05-17T02:10:44.262Z,0.00
2018-05-17T02:11:44.236Z,0.00
2018-05-17T02:12:44.221Z,0.00
2018-05-17T02:13:44.218Z,0.00
2018-05-17T02:14:44.195Z,0.00
2018-05-17T02:15:44.179Z,0.00
2018-05-17T02:16:44.164Z,0.00
2018-05-17T02:17:44.145Z,0.00
2018-05-17T02:18:44.170Z,0.00
2018-05-17T02:19:44.154Z,0.00
2018-05-17T02:20:44.089Z,0.00
2018-05-17T02:21:44.180Z,0.00
2018-05-17T02:22:44.058Z,0.00
2018-05-17T02:23:44.038Z,0.00
2018-05-17T02:24:44.018Z,0.00
2018-05-17T02:25:44.003Z,0.00
2018-05-17T02:26:43.991Z,0.00
2018-05-17T02:27:43.963Z,0.00
2018-05-17T02:28:43.950Z,0.00
2018-05-17T02:29:43.945Z,0.00
2018-05-17T02:30:43.926Z,0.00
2018-05-17T02:31:43.903Z,0.00
2018-05-17T02:32:43.884Z,0.00
2018-05-17T02:33:43.875Z,0.00
2018-05-17T02:34:43.856Z,0.00
2018-05-17T02:35:43.864Z,0.00
2018-05-17T02:36:43.817Z,0.00
2018-05-17T02:37:43.796Z,0.00
2018-05-17T02:38:43.784Z,0.00
2018-05-17T02:39:43.770Z,0.00
2018-05-17T02:40:43.757Z,0.00
2018-05-17T02:41:43.732Z,0.00
2018-05-17T02:42:43.719Z,0.00
2018-05-17T02:43:43.711Z,0.00
2018-05-17T02:44:43.693Z,0.00
2018-05-17T02:45:43.664Z,0.00
2018-05-17T02:46:43.655Z,0.00
2018-05-17T02:47:43.653Z,0.00
2018-05-17T02:48:43.616Z,0.00
2018-05-17T02:49:43.603Z,0.00
2018-05-17T02:50:43.582Z,0.00
2018-05-17T02:51:43.568Z,0.00
2018-05-17T02:52:43.548Z,0.00
2018-05-17T02:53:43.533Z,0.00
2018-05-17T02:54:43.516Z,0.00
2018-05-17T02:55:43.502Z,0.00
2018-05-17T02:56:43.489Z,0.00
2018-05-17T02:57:43.465Z,0.00
2018-05-17T02:58:43.449Z,0.00
2018-05-17T02:59:43.429Z,0.00
2018-05-17T03:00:43.415Z,0.00
2018-05-17T03:01:43.398Z,0.00
2018-05-17T03:02:43.384Z,0.00
2018-05-17T03:03:43.363Z,0.00
2018-05-17T03:04:43.355Z,0.00
2018-05-17T03:05:43.344Z,0.00
2018-05-17T03:06:43.314Z,0.00
2018-05-17T03:07:43.292Z,0.00
2018-05-17T03:08:43.289Z,0.00
2018-05-17T03:09:43.260Z,0.00
2018-05-17T03:10:43.248Z,0.00
2018-05-17T03:11:43.233Z,0.00
2018-05-17T03:12:43.216Z,0.00
2018-05-17T03:13:43.202Z,0.00
2018-05-17T03:14:43.188Z,0.00
2018-05-17T03:15:43.162Z,0.00
2018-05-17T03:16:43.139Z,0.00
2018-05-17T03:17:43.129Z,0.00
2018-05-17T03:18:43.105Z,0.00
2018-05-17T03:19:43.094Z,0.00
2018-05-17T03:20:43.083Z,0.00
2018-05-17T03:21:43.055Z,0.00
2018-05-17T03:22:43.039Z,0.00
2018-05-17T03:23:43.025Z,0.00
2018-05-17T03:24:43.007Z,0.00
2018-05-17T03:25:42.990Z,0.00
2018-05-17T03:26:42.982Z,0.00
2018-05-17T03:27:42.957Z,0.00
2018-05-17T03:28:42.937Z,5.63
2018-05-17T03:29:42.930Z,5.63
2018-05-17T03:30:42.916Z,5.63
2018-05-17T03:31:42.892Z,5.63
2018-05-17T03:32:42.871Z,5.63
2018-05-17T03:33:42.857Z,5.63
2018-05-17T03:34:42.834Z,5.63
2018-05-17T03:35:42.834Z,5.63
2018-05-17T03:36:42.805Z,5.63
2018-05-17T03:37:42.799Z,5.63
2018-05-17T03:38:42.779Z,11.25
2018-05-17T03:39:42.752Z,11.25
2018-05-17T03:40:42.736Z,11.25
2018-05-17T03:41:42.723Z,11.25
2018-05-17T03:42:42.704Z,11.25
2018-05-17T03:43:42.686Z,11.25
2018-05-17T03:44:42.668Z,11.25
2018-05-17T03:45:42.657Z,16.88
2018-05-17T03:46:42.631Z,16.88
2018-05-17T03:47:42.624Z,16.88
2018-05-17T03:48:42.599Z,16.88
2018-05-17T03:49:42.654Z,16.88
2018-05-17T03:50:42.563Z,16.88
2018-05-17T03:51:42.539Z,22.50
2018-05-17T03:52:42.546Z,22.50
2018-05-17T03:53:42.511Z,22.50
2018-05-17T03:54:42.496Z,22.50
2018-05-17T03:55:42.482Z,22.50
2018-05-17T03:56:42.473Z,22.50
2018-05-17T03:57:42.452Z,28.13
2018-05-17T03:58:42.430Z,28.13
2018-05-17T03:59:42.422Z,28.13
2018-05-17T04:00:42.398Z,28.13
2018-05-17T04:01:42.379Z,22.50
2018-05-17T04:02:42.371Z,22.50
2018-05-17T04:03:42.338Z,22.50
2018-05-17T04:04:42.328Z,28.13
2018-05-17T04:05:42.339Z,33.75
2018-05-17T04:06:42.315Z,33.75
2018-05-17T04:07:42.275Z,33.75
2018-05-17T04:08:42.257Z,33.75
2018-05-17T04:09:42.318Z,33.75
2018-05-17T04:10:42.221Z,39.38
2018-05-17T04:11:42.218Z,39.38
2018-05-17T04:12:42.185Z,39.38
2018-05-17T04:13:42.181Z,39.38
2018-05-17T04:14:42.163Z,39.38
2018-05-17T04:15:42.143Z,45.00
2018-05-17T04:16:42.119Z,50.63
2018-05-17T04:17:42.110Z,50.63
2018-05-17T04:18:42.087Z,56.25
2018-05-17T04:19:42.076Z,56.25
2018-05-17T04:20:42.047Z,56.25
2018-05-17T04:21:42.033Z,50.63
2018-05-17T04:22:42.020Z,56.25
2018-05-17T04:23:42.011Z,56.25
2018-05-17T04:24:41.986Z,56.25
2018-05-17T04:25:41.972Z,50.63
2018-05-17T04:26:41.944Z,50.63
2018-05-17T04:27:41.931Z,50.63
2018-05-17T04:28:41.931Z,56.25
2018-05-17T04:29:41.899Z,50.63
2018-05-17T04:30:41.878Z,45.00
2018-05-17T04:31:41.876Z,45.00
2018-05-17T04:32:41.855Z,50.63
2018-05-17T04:33:41.850Z,61.88
2018-05-17T04:34:41.883Z,61.88
2018-05-17T04:35:41.806Z,61.88
2018-05-17T04:36:41.786Z,67.50
2018-05-17T04:37:41.758Z,61.88
2018-05-17T04:38:41.763Z,50.63
2018-05-17T04:39:41.746Z,50.63
2018-05-17T04:40:41.710Z,61.88
2018-05-17T04:41:41.697Z,61.88
2018-05-17T04:42:41.707Z,61.88
2018-05-17T04:43:41.666Z,73.13
2018-05-17T04:44:41.656Z,73.13
2018-05-17T04:45:41.627Z,73.13
2018-05-17T04:46:41.628Z,73.13
2018-05-17T04:47:41.613Z,78.75
2018-05-17T04:48:41.580Z,84.38
2018-05-17T04:49:41.577Z,95.63
2018-05-17T04:50:41.594Z,106.88
2018-05-17T04:51:41.534Z,112.50
2018-05-17T04:52:41.514Z,112.50
2018-05-17T04:53:41.491Z,118.13
2018-05-17T04:54:41.545Z,118.13
2018-05-17T04:55:41.455Z,129.38
2018-05-17T04:56:41.462Z,129.38
2018-05-17T04:57:41.435Z,140.63
2018-05-17T04:58:41.405Z,146.25
2018-05-17T04:59:41.405Z,135.00
2018-05-17T05:00:41.414Z,129.38
2018-05-17T05:01:41.386Z,140.63
2018-05-17T05:02:41.419Z,135.00
2018-05-17T05:03:41.358Z,146.25
2018-05-17T05:04:41.306Z,157.50
2018-05-17T05:05:41.298Z,151.88
2018-05-17T05:06:41.275Z,151.88
2018-05-17T05:07:41.252Z,151.88
2018-05-17T05:08:41.241Z,135.00
2018-05-17T05:09:41.238Z,168.75
2018-05-17T05:10:41.224Z,163.13
2018-05-17T05:11:41.190Z,151.88
2018-05-17T05:12:41.190Z,185.63
2018-05-17T05:13:41.175Z,185.63
2018-05-17T05:14:41.151Z,174.38
2018-05-17T05:15:41.131Z,163.13
2018-05-17T05:16:41.119Z,163.13
2018-05-17T05:17:41.084Z,168.75
2018-05-17T05:18:41.089Z,180.00
2018-05-17T05:19:41.082Z,180.00
2018-05-17T05:20:41.067Z,168.75
2018-05-17T05:21:41.032Z,157.50
2018-05-17T05:22:41.046Z,168.75
2018-05-17T05:23:41.004Z,163.13
2018-05-17T05:24:41.005Z,174.38
2018-05-17T05:25:40.969Z,185.63
2018-05-17T05:26:40.948Z,180.00
2018-05-17T05:27:40.928Z,185.63
2018-05-17T05:28:40.938Z,180.00
2018-05-17T05:29:40.892Z,208.13
2018-05-17T05:30:40.878Z,208.13
2018-05-17T05:31:40.909Z,185.63
2018-05-17T05:32:40.860Z,185.63
2018-05-17T05:33:40.824Z,202.50
2018-05-17T05:34:40.831Z,202.50
2018-05-17T05:35:40.850Z,196.88
2018-05-17T05:36:40.788Z,202.50
2018-05-17T05:37:40.814Z,196.88
2018-05-17T05:38:40.767Z,202.50
2018-05-17T05:39:40.725Z,225.00
2018-05-17T05:40:40.750Z,225.00
2018-05-17T05:41:40.722Z,225.00
2018-05-17T05:42:40.686Z,241.88
2018-05-17T05:43:40.665Z,230.63
2018-05-17T05:44:40.689Z,213.75
2018-05-17T05:45:40.642Z,208.13
2018-05-17T05:46:40.630Z,213.75
2018-05-17T05:47:40.614Z,230.63
2018-05-17T05:48:40.581Z,225.00
2018-05-17T05:49:40.582Z,225.00
2018-05-17T05:50:40.559Z,219.38
2018-05-17T05:51:40.546Z,236.25
2018-05-17T05:52:40.531Z,270.00
2018-05-17T05:53:40.509Z,247.50
2018-05-17T05:54:40.500Z,236.25
2018-05-17T05:55:40.484Z,236.25
2018-05-17T05:56:40.472Z,241.88
2018-05-17T05:57:40.470Z,281.25
2018-05-17T05:58:40.456Z,270.00
2018-05-17T05:59:40.440Z,281.25
2018-05-17T06:00:40.406Z,292.50
2018-05-17T06:01:40.400Z,303.75
2018-05-17T06:02:40.367Z,270.00
2018-05-17T06:03:40.347Z,253.13
2018-05-17T06:04:40.344Z,258.75
2018-05-17T06:05:40.311Z,264.38
2018-05-17T06:06:40.321Z,247.50
2018-05-17T06:07:40.290Z,230.63
2018-05-17T06:08:40.270Z,241.88
2018-05-17T06:09:40.263Z,241.88
2018-05-17T06:10:40.260Z,230.63
2018-05-17T06:11:40.245Z,247.50
2018-05-17T06:12:40.200Z,275.63
2018-05-17T06:13:40.201Z,281.25
2018-05-17T06:14:40.179Z,241.88
2018-05-17T06:15:40.158Z,241.88
2018-05-17T06:16:40.160Z,275.63
2018-05-17T06:17:40.126Z,241.88
2018-05-17T06:18:40.106Z,253.13
2018-05-17T06:19:40.112Z,275.63
2018-05-17T06:20:40.072Z,298.13
2018-05-17T06:21:40.063Z,298.13
2018-05-17T06:22:40.034Z,292.50
2018-05-17T06:23:40.032Z,309.38
2018-05-17T06:24:40.036Z,315.00
2018-05-17T06:25:39.994Z,326.25
2018-05-17T06:26:39.978Z,315.00
2018-05-17T06:27:39.995Z,320.63
2018-05-17T06:28:39.952Z,315.00
2018-05-17T06:29:39.943Z,286.88
2018-05-17T06:30:39.943Z,303.75
2018-05-17T06:31:39.923Z,376.88
2018-05-17T06:32:39.886Z,343.13
2018-05-17T06:33:39.864Z,320.63
2018-05-17T06:34:39.862Z,343.13
2018-05-17T06:35:39.850Z,354.38
2018-05-17T06:36:39.856Z,331.88
2018-05-17T06:37:39.933Z,331.88
2018-05-17T06:38:39.856Z,410.63
2018-05-17T06:39:39.810Z,438.75
2018-05-17T06:40:39.774Z,444.38
2018-05-17T06:41:39.758Z,433.13
2018-05-17T06:42:39.741Z,405.00
2018-05-17T06:43:39.701Z,500.63
2018-05-17T06:44:39.701Z,427.50
2018-05-17T06:45:39.706Z,343.13
2018-05-17T06:46:39.674Z,337.50
2018-05-17T06:47:39.649Z,343.13
2018-05-17T06:48:39.638Z,365.63
2018-05-17T06:49:39.670Z,354.38
2018-05-17T06:50:39.629Z,365.63
2018-05-17T06:51:39.576Z,360.00
2018-05-17T06:52:39.595Z,376.88
2018-05-17T06:53:39.575Z,427.50
2018-05-17T06:54:39.533Z,455.63
2018-05-17T06:55:39.564Z,500.63
2018-05-17T06:56:39.533Z,444.38
2018-05-17T06:57:39.518Z,450.00
2018-05-17T06:58:39.487Z,444.38
2018-05-17T06:59:39.485Z,410.63
2018-05-17T07:00:39.551Z,393.75
2018-05-17T07:01:39.457Z,382.50
2018-05-17T07:02:39.452Z,399.38
2018-05-17T07:03:39.408Z,433.13
2018-05-17T07:04:39.394Z,427.50
2018-05-17T07:05:39.398Z,416.25
2018-05-17T07:06:39.375Z,421.88
2018-05-17T07:07:39.345Z,410.63
2018-05-17T07:08:39.317Z,399.38
2018-05-17T07:09:39.383Z,461.25
2018-05-17T07:10:39.328Z,551.25
2018-05-17T07:11:39.302Z,511.88
2018-05-17T07:12:39.282Z,466.88
2018-05-17T07:13:39.250Z,466.88
2018-05-17T07:14:39.226Z,472.50
2018-05-17T07:15:39.228Z,551.25
2018-05-17T07:16:39.208Z,635.63
2018-05-17T07:17:39.183Z,691.88
2018-05-17T07:18:39.473Z,607.50
2018-05-17T07:19:39.169Z,652.50
2018-05-17T07:20:39.162Z,590.63
2018-05-17T07:21:39.127Z,618.75
2018-05-17T07:22:39.104Z,573.75
2018-05-17T07:23:39.086Z,568.13
2018-05-17T07:24:39.072Z,573.75
2018-05-17T07:25:39.078Z,596.25
2018-05-17T07:26:39.093Z,624.38
2018-05-17T07:27:39.045Z,556.88
2018-05-17T07:28:39.025Z,545.63
2018-05-17T07:29:39.025Z,551.25
2018-05-17T07:30:39.141Z,562.50
2018-05-17T07:31:38.987Z,585.00
2018-05-17T07:32:38.969Z,568.13
2018-05-17T07:33:38.960Z,579.38
2018-05-17T07:34:38.942Z,590.63
2018-05-17T07:35:38.939Z,607.50
2018-05-17T07:36:38.899Z,568.13
2018-05-17T07:37:38.926Z,528.75
2018-05-17T07:38:38.887Z,551.25
2018-05-17T07:39:38.856Z,540.00
2018-05-17T07:40:38.921Z,511.88
2018-05-17T07:41:38.864Z,618.75
2018-05-17T07:42:38.853Z,2182.50
2018-05-17T07:43:38.825Z,652.50
2018-05-17T07:44:38.785Z,2171.25
2018-05-17T07:45:38.792Z,2463.75
2018-05-17T07:46:38.824Z,916.88
2018-05-17T07:47:38.749Z,916.88
2018-05-17T07:48:38.725Z,1833.75
2018-05-17T07:49:38.726Z,826.88
2018-05-17T07:50:38.737Z,2593.13
2018-05-17T07:51:38.728Z,995.63
2018-05-17T07:52:38.743Z,905.63
2018-05-17T07:53:38.665Z,911.25
2018-05-17T07:54:38.721Z,2407.50
2018-05-17T07:55:38.731Z,871.88
2018-05-17T07:56:38.653Z,1085.63
2018-05-17T07:57:38.603Z,916.88
2018-05-17T07:58:38.613Z,843.75
2018-05-17T07:59:38.614Z,871.88
2018-05-17T08:00:38.577Z,821.25
2018-05-17T08:01:38.600Z,798.75
2018-05-17T08:02:38.537Z,804.38
2018-05-17T08:03:38.547Z,849.38
2018-05-17T08:04:38.682Z,900.00
2018-05-17T08:05:38.505Z,866.25
2018-05-17T08:06:38.487Z,793.13
2018-05-17T08:07:38.487Z,663.75
2018-05-17T08:08:38.479Z,607.50
2018-05-17T08:09:38.451Z,590.63
2018-05-17T08:10:38.472Z,573.75
2018-05-17T08:11:38.456Z,540.00
2018-05-17T08:12:38.411Z,545.63
2018-05-17T08:13:38.469Z,652.50
2018-05-17T08:14:38.403Z,748.13
2018-05-17T08:15:38.384Z,815.63
2018-05-17T08:16:38.379Z,877.50
2018-05-17T08:17:38.392Z,781.88
2018-05-17T08:18:38.409Z,725.63
2018-05-17T08:19:38.398Z,720.00
2018-05-17T08:21:38.353Z,922.50
2018-05-17T08:22:38.354Z,933.75
2018-05-17T08:23:38.327Z,888.75
2018-05-17T08:24:38.327Z,922.50
2018-05-17T08:25:38.316Z,855.00
2018-05-17T08:26:38.351Z,742.50
2018-05-17T08:27:38.278Z,708.75
2018-05-17T08:28:38.204Z,691.88
2018-05-17T08:29:38.254Z,776.25
2018-05-17T08:30:38.178Z,877.50
2018-05-17T08:31:38.202Z,950.63
2018-05-17T08:32:38.181Z,866.25
2018-05-17T08:33:38.134Z,843.75
2018-05-17T08:34:38.142Z,838.13
2018-05-17T08:35:38.149Z,804.38
2018-05-17T08:36:38.335Z,736.88
2018-05-17T08:37:38.082Z,680.63
2018-05-17T08:38:38.071Z,607.50
2018-05-17T08:39:38.059Z,579.38
2018-05-17T08:40:38.067Z,618.75
2018-05-17T08:41:38.018Z,607.50
2018-05-17T08:42:38.099Z,545.63
2018-05-17T08:43:38.055Z,523.13
2018-05-17T08:44:38.036Z,495.00
2018-05-17T08:45:37.987Z,461.25
2018-05-17T08:46:37.985Z,438.75
2018-05-17T08:47:38.021Z,438.75
2018-05-17T08:48:37.982Z,461.25
2018-05-17T08:49:37.930Z,478.13
2018-05-17T08:50:37.916Z,506.25
2018-05-17T08:51:37.897Z,528.75
2018-05-17T08:52:37.880Z,618.75
2018-05-17T08:53:37.874Z,742.50
2018-05-17T08:54:37.875Z,686.25
2018-05-17T08:55:37.864Z,596.25
2018-05-17T08:56:37.833Z,613.13
2018-05-17T08:57:37.838Z,601.88
2018-05-17T08:58:37.816Z,579.38
2018-05-17T08:59:37.786Z,579.38
2018-05-17T09:00:37.795Z,551.25
2018-05-17T09:01:37.764Z,495.00
2018-05-17T09:02:37.748Z,455.63
2018-05-17T09:03:37.745Z,444.38
2018-05-17T09:04:37.761Z,416.25
2018-05-17T09:05:37.716Z,393.75
2018-05-17T09:06:37.737Z,393.75
2018-05-17T09:07:37.667Z,382.50
2018-05-17T09:08:37.681Z,376.88
2018-05-17T09:09:37.657Z,360.00
2018-05-17T09:10:37.624Z,354.38
2018-05-17T09:11:37.627Z,354.38
2018-05-17T09:12:37.703Z,348.75
2018-05-17T09:13:37.707Z,348.75
2018-05-17T09:14:37.682Z,354.38
2018-05-17T09:15:37.594Z,360.00
2018-05-17T09:16:37.572Z,365.63
2018-05-17T09:17:37.524Z,376.88
2018-05-17T09:18:37.646Z,399.38
2018-05-17T09:19:37.487Z,393.75
2018-05-17T09:20:37.572Z,371.25
2018-05-17T09:21:37.470Z,450.00
2018-05-17T09:22:37.450Z,506.25
2018-05-17T09:23:37.437Z,478.13
2018-05-17T09:24:37.458Z,438.75
2018-05-17T09:25:37.459Z,461.25
2018-05-17T09:26:37.404Z,562.50
2018-05-17T09:27:37.384Z,630.00
2018-05-17T09:28:37.390Z,652.50
2018-05-17T09:29:37.376Z,562.50
2018-05-17T09:30:37.384Z,601.88
2018-05-17T09:31:37.335Z,618.75
2018-05-17T09:32:37.301Z,691.88
2018-05-17T09:33:37.309Z,736.88
2018-05-17T09:34:37.301Z,770.63
2018-05-17T09:35:37.459Z,821.25
2018-05-17T09:36:37.281Z,731.25
2018-05-17T09:37:37.270Z,703.13
2018-05-17T09:38:37.219Z,725.63
2018-05-17T09:39:37.223Z,860.63
2018-05-17T09:40:37.222Z,798.75
2018-05-17T09:41:37.259Z,669.38
2018-05-17T09:42:37.161Z,669.38
2018-05-17T09:43:37.148Z,562.50
2018-05-17T09:44:37.229Z,461.25
2018-05-17T09:45:37.141Z,421.88
2018-05-17T09:46:37.151Z,393.75
2018-05-17T09:47:37.119Z,455.63
2018-05-17T09:48:38.666Z,517.50
2018-05-17T09:49:37.948Z,405.00
2018-05-17T09:50:37.902Z,371.25
2018-05-17T09:51:37.302Z,343.13
2018-05-17T09:52:37.033Z,343.13
2018-05-17T09:53:37.020Z,348.75
2018-05-17T09:54:37.018Z,371.25
2018-05-17T09:55:37.034Z,421.88
2018-05-17T09:56:37.105Z,399.38
2018-05-17T09:57:37.022Z,393.75
2018-05-17T09:58:36.966Z,410.63
2018-05-17T09:59:36.978Z,461.25
2018-05-17T10:00:36.970Z,433.13
2018-05-17T10:01:36.940Z,376.88
2018-05-17T10:02:36.968Z,331.88
2018-05-17T10:03:36.904Z,320.63
2018-05-17T10:04:36.866Z,309.38
2018-05-17T10:05:36.869Z,309.38
2018-05-17T10:06:36.884Z,309.38
2018-05-17T10:07:36.833Z,309.38
2018-05-17T10:08:36.845Z,309.38
2018-05-17T10:09:36.793Z,303.75
2018-05-17T10:10:36.801Z,309.38
2018-05-17T10:11:36.806Z,309.38
2018-05-17T10:12:36.750Z,315.00
2018-05-17T10:13:36.759Z,309.38
2018-05-17T10:14:36.751Z,309.38
2018-05-17T10:15:36.776Z,315.00
2018-05-17T10:16:36.685Z,326.25
2018-05-17T10:17:36.683Z,337.50
2018-05-17T10:18:36.679Z,343.13
2018-05-17T10:19:36.661Z,371.25
2018-05-17T10:20:36.658Z,528.75
2018-05-17T10:21:36.629Z,573.75
2018-05-17T10:22:36.600Z,556.88
2018-05-17T10:23:36.606Z,511.88
2018-05-17T10:24:36.589Z,483.75
2018-05-17T10:25:36.559Z,405.00
2018-05-17T10:26:36.565Z,393.75
2018-05-17T10:27:36.549Z,405.00
2018-05-17T10:28:36.543Z,500.63
2018-05-17T10:29:36.534Z,461.25
2018-05-17T10:30:36.489Z,433.13
2018-05-17T10:31:36.473Z,393.75
2018-05-17T10:32:36.485Z,343.13
2018-05-17T10:33:36.459Z,309.38
2018-05-17T10:34:36.483Z,292.50
2018-05-17T10:35:36.422Z,286.88
2018-05-17T10:36:36.404Z,292.50
2018-05-17T10:37:36.395Z,292.50
2018-05-17T10:38:36.390Z,292.50
2018-05-17T10:39:36.385Z,292.50
2018-05-17T10:40:36.353Z,292.50
2018-05-17T10:41:36.369Z,292.50
2018-05-17T10:42:36.338Z,298.13
2018-05-17T10:43:36.324Z,298.13
2018-05-17T10:44:36.367Z,320.63
2018-05-17T10:45:36.358Z,275.63
2018-05-17T10:46:36.267Z,309.38
2018-05-17T10:47:36.296Z,331.88
2018-05-17T10:48:36.261Z,495.00
2018-05-17T10:49:36.292Z,466.88
2018-05-17T10:50:36.262Z,455.63
2018-05-17T10:51:36.251Z,545.63
2018-05-17T10:52:36.254Z,455.63
2018-05-17T10:53:36.191Z,371.25
2018-05-17T10:54:36.286Z,331.88
2018-05-17T10:55:36.186Z,292.50
2018-05-17T10:56:36.166Z,292.50
2018-05-17T10:57:36.215Z,292.50
2018-05-17T10:58:36.150Z,292.50
2018-05-17T10:59:36.122Z,281.25
2018-05-17T11:00:36.133Z,281.25
2018-05-17T11:01:36.137Z,281.25
2018-05-17T11:02:36.182Z,286.88
2018-05-17T11:03:36.089Z,281.25
2018-05-17T11:04:36.042Z,281.25
2018-05-17T11:05:36.118Z,275.63
2018-05-17T11:06:36.074Z,275.63
2018-05-17T11:07:36.008Z,281.25
2018-05-17T11:08:35.987Z,264.38
2018-05-17T11:09:36.026Z,281.25
2018-05-17T11:10:36.087Z,275.63
2018-05-17T11:11:35.971Z,275.63
2018-05-17T11:12:35.955Z,275.63
2018-05-17T11:13:35.969Z,281.25
2018-05-17T11:14:35.920Z,286.88
2018-05-17T11:15:35.922Z,281.25
2018-05-17T11:16:35.931Z,275.63
2018-05-17T11:17:35.895Z,275.63
2018-05-17T11:18:35.885Z,275.63
2018-05-17T11:19:35.944Z,275.63
2018-05-17T11:20:35.827Z,275.63
2018-05-17T11:21:35.879Z,281.25
2018-05-17T11:22:35.821Z,275.63
2018-05-17T11:23:35.755Z,270.00
2018-05-17T11:24:35.753Z,270.00
2018-05-17T11:25:35.756Z,275.63
2018-05-17T11:26:35.740Z,281.25
2018-05-17T11:27:35.750Z,281.25
2018-05-17T11:28:35.713Z,275.63
2018-05-17T11:29:35.716Z,270.00
2018-05-17T11:30:35.669Z,270.00
2018-05-17T11:31:35.684Z,258.75
2018-05-17T11:32:35.668Z,258.75
2018-05-17T11:33:35.644Z,258.75
2018-05-17T11:34:35.707Z,253.13
2018-05-17T11:35:35.601Z,253.13
2018-05-17T11:36:35.613Z,258.75
2018-05-17T11:37:35.610Z,258.75
2018-05-17T11:38:35.600Z,258.75
2018-05-17T11:39:35.629Z,258.75
2018-05-17T11:40:35.699Z,258.75
2018-05-17T11:41:35.520Z,253.13
2018-05-17T11:42:35.529Z,253.13
2018-05-17T11:43:35.503Z,258.75
2018-05-17T11:44:35.531Z,253.13
2018-05-17T11:45:35.519Z,258.75
2018-05-17T11:46:35.500Z,253.13
2018-05-17T11:47:35.467Z,253.13
2018-05-17T11:48:35.485Z,253.13
2018-05-17T11:49:35.430Z,253.13
2018-05-17T11:50:35.574Z,253.13
2018-05-17T11:51:35.437Z,253.13
2018-05-17T11:52:35.355Z,253.13
2018-05-17T11:53:35.349Z,253.13
2018-05-17T11:54:35.359Z,253.13
2018-05-17T11:55:35.347Z,258.75
2018-05-17T11:56:35.351Z,253.13
2018-05-17T11:57:35.393Z,253.13
2018-05-17T11:58:35.309Z,247.50
2018-05-17T11:59:36.245Z,253.13
2018-05-17T12:00:35.260Z,247.50
2018-05-17T12:01:35.274Z,253.13
2018-05-17T12:02:35.296Z,253.13
2018-05-17T12:03:35.248Z,253.13
2018-05-17T12:04:35.232Z,253.13
2018-05-17T12:05:35.291Z,247.50
2018-05-17T12:06:35.191Z,241.88
2018-05-17T12:07:35.225Z,247.50
2018-05-17T12:08:35.145Z,247.50
2018-05-17T12:09:35.193Z,247.50
2018-05-17T12:10:35.168Z,241.88
2018-05-17T12:11:35.117Z,241.88
2018-05-17T12:12:35.387Z,241.88
2018-05-17T12:13:35.098Z,236.25
2018-05-17T12:14:35.104Z,236.25
2018-05-17T12:15:35.075Z,236.25
2018-05-17T12:16:35.065Z,236.25
2018-05-17T12:17:35.044Z,236.25
2018-05-17T12:18:35.094Z,236.25
2018-05-17T12:19:35.011Z,236.25
2018-05-17T12:20:35.023Z,241.88
2018-05-17T12:21:34.989Z,241.88
2018-05-17T12:22:34.961Z,236.25
2018-05-17T12:23:34.977Z,241.88
2018-05-17T12:24:35.021Z,230.63
2018-05-17T12:25:34.963Z,236.25
2018-05-17T12:26:34.922Z,230.63
2018-05-17T12:27:34.947Z,230.63
2018-05-17T12:28:34.923Z,230.63
2018-05-17T12:29:34.917Z,236.25
2018-05-17T12:30:34.870Z,236.25
2018-05-17T12:31:34.929Z,241.88
2018-05-17T12:32:34.881Z,236.25
2018-05-17T12:33:34.837Z,236.25
2018-05-17T12:34:34.858Z,236.25
2018-05-17T12:35:34.831Z,236.25
2018-05-17T12:36:34.817Z,236.25
2018-05-17T12:37:34.791Z,236.25
2018-05-17T12:38:34.785Z,236.25
2018-05-17T12:39:34.755Z,241.88
2018-05-17T12:40:34.752Z,236.25
2018-05-17T12:41:34.763Z,236.25
2018-05-17T12:42:34.705Z,236.25
2018-05-17T12:43:34.742Z,241.88
2018-05-17T12:44:34.729Z,241.88
2018-05-17T12:45:34.705Z,241.88